Time;durP1;ratioP1;P1;durP2;ratioP2;P2;SDS_P1;SDS_P2;PMS_P1;PMS_P2;Temp;Humidity;BMP_temperature;BMP_pressure;BME280_temperature;BME280_humidity;BME280_pressure;Samples;Min_cycle;Max_cycle;Signal;HPM_P1;HPM_P2
2021/07/01 00:01:41;;;;;;;50.53;26.15;;;15.60;99.90;;;;;;5105245;28;20020;-42
2021/07/01 00:04:08;;;;;;;50.08;25.60;;;15.60;99.90;;;;;;5101197;28;20023;-42
2021/07/01 00:06:34;;;;;;;49.72;25.40;;;15.50;99.90;;;;;;5103054;28;20035;-42
2021/07/01 00:08:59;;;;;;;55.72;24.92;;;15.50;99.90;;;;;;5101134;28;20032;-42
2021/07/01 00:11:25;;;;;;;55.25;26.35;;;15.50;99.90;;;;;;5097735;28;20038;-42
2021/07/01 00:13:50;;;;;;;52.60;25.90;;;15.40;99.90;;;;;;5106029;28;20020;-41
2021/07/01 00:16:16;;;;;;;54.08;25.50;;;15.40;99.90;;;;;;5101583;28;20034;-42
2021/07/01 00:18:42;;;;;;;56.83;25.98;;;15.30;99.90;;;;;;5101330;28;20473;-42
2021/07/01 00:21:07;;;;;;;55.30;26.15;;;15.40;99.90;;;;;;5100998;28;20034;-42
2021/07/01 00:23:33;;;;;;;52.17;25.35;;;15.30;99.90;;;;;;5102800;28;20096;-42
2021/07/01 00:25:58;;;;;;;59.95;26.45;;;15.40;99.90;;;;;;5086230;28;20040;-41
2021/07/01 00:28:24;;;;;;;56.25;25.98;;;15.40;99.90;;;;;;5108681;28;20527;-42
2021/07/01 00:30:49;;;;;;;51.88;23.35;;;15.30;99.90;;;;;;5105241;28;20035;-42
2021/07/01 00:33:15;;;;;;;46.72;22.25;;;15.40;99.90;;;;;;5099133;28;20028;-42
2021/07/01 00:35:41;;;;;;;43.33;22.10;;;15.30;99.90;;;;;;5102575;28;20042;-42
2021/07/01 00:38:06;;;;;;;39.97;21.83;;;15.30;99.90;;;;;;5092802;28;20031;-41
2021/07/01 00:40:32;;;;;;;42.28;20.63;;;15.30;99.90;;;;;;5104650;28;20019;-42
2021/07/01 00:42:57;;;;;;;45.05;21.35;;;15.30;99.90;;;;;;5104233;28;20270;-41
2021/07/01 00:45:23;;;;;;;34.80;18.88;;;15.30;99.90;;;;;;5102619;28;20027;-41
2021/07/01 00:47:49;;;;;;;40.60;19.80;;;15.30;99.90;;;;;;5098976;28;20031;-43
2021/07/01 00:50:14;;;;;;;35.58;17.23;;;15.20;99.90;;;;;;5099335;28;20050;-42
2021/07/01 00:52:40;;;;;;;32.65;17.50;;;15.20;99.90;;;;;;5100517;28;20590;-42
2021/07/01 00:55:12;;;;;;;33.97;17.83;;;15.20;99.90;;;;;;5100967;28;20105;-42
2021/07/01 00:57:38;;;;;;;35.30;18.90;;;15.20;99.90;;;;;;5102212;28;20019;-42
2021/07/01 01:00:24;;;;;;;28.55;16.40;;;15.20;99.90;;;;;;5101108;28;20072;-43
2021/07/01 01:02:49;;;;;;;34.80;17.92;;;15.10;99.90;;;;;;5098693;28;20046;-42
2021/07/01 01:05:15;;;;;;;34.00;18.25;;;15.10;99.90;;;;;;5101014;28;20032;-44
2021/07/01 01:07:41;;;;;;;23.73;15.15;;;15.10;99.90;;;;;;5102917;28;20051;-42
2021/07/01 01:10:07;;;;;;;25.65;15.00;;;15.10;99.90;;;;;;5099647;28;20035;-41
2021/07/01 01:12:32;;;;;;;25.60;15.30;;;15.10;99.90;;;;;;5091280;28;20028;-42
2021/07/01 01:14:58;;;;;;;22.55;14.38;;;15.00;99.90;;;;;;5094970;28;20055;-42
2021/07/01 01:17:23;;;;;;;23.90;15.15;;;15.00;99.90;;;;;;5104362;28;20501;-41
2021/07/01 01:19:49;;;;;;;26.73;15.65;;;15.00;99.90;;;;;;5097212;28;20028;-42
2021/07/01 01:22:14;;;;;;;27.60;15.38;;;14.90;99.90;;;;;;5105473;28;20108;-41
2021/07/01 01:24:40;;;;;;;25.73;15.25;;;14.90;99.90;;;;;;5098277;28;20466;-41
2021/07/01 01:27:05;;;;;;;24.38;15.88;;;14.90;99.90;;;;;;5091074;28;20513;-41
2021/07/01 01:29:31;;;;;;;22.67;15.15;;;14.80;99.90;;;;;;5104472;28;20020;-42
2021/07/01 01:31:56;;;;;;;26.83;16.08;;;14.80;99.90;;;;;;5098269;28;20030;-42
2021/07/01 01:34:22;;;;;;;26.02;16.02;;;14.90;99.90;;;;;;5104308;28;20020;-41
2021/07/01 01:36:47;;;;;;;28.45;16.40;;;14.90;99.90;;;;;;5096710;28;20119;-41
2021/07/01 01:39:13;;;;;;;30.92;18.20;;;14.90;99.90;;;;;;5104731;28;20451;-41
2021/07/01 01:41:39;;;;;;;27.90;16.73;;;14.80;99.90;;;;;;5097879;28;20521;-42
2021/07/01 01:44:05;;;;;;;29.42;16.02;;;14.80;99.90;;;;;;5105789;28;20020;-42
2021/07/01 01:46:39;;;;;;;27.17;16.52;;;14.80;99.90;;;;;;5093431;28;20047;-42
2021/07/01 01:49:06;;;;;;;28.17;16.77;;;14.80;99.90;;;;;;5099231;28;20020;-42
2021/07/01 01:51:32;;;;;;;28.05;16.92;;;14.80;99.90;;;;;;5102286;28;20073;-42
2021/07/01 01:53:58;;;;;;;26.27;16.15;;;14.80;99.90;;;;;;5097695;28;20027;-42
2021/07/01 01:56:24;;;;;;;26.67;15.65;;;14.70;99.90;;;;;;5104384;28;20063;-42
2021/07/01 01:58:50;;;;;;;26.10;14.70;;;14.70;99.90;;;;;;5097542;28;20420;-42
2021/07/01 02:01:15;;;;;;;25.20;14.48;;;14.70;99.90;;;;;;5103292;28;20013;-41
2021/07/01 02:03:41;;;;;;;27.30;14.32;;;14.60;99.90;;;;;;5103125;28;20409;-42
2021/07/01 02:06:07;;;;;;;25.75;14.77;;;14.60;99.90;;;;;;5098752;28;20175;-42
2021/07/01 02:08:33;;;;;;;23.40;13.77;;;14.60;99.90;;;;;;5102204;27;20031;-42
2021/07/01 02:10:59;;;;;;;23.52;13.98;;;14.50;99.90;;;;;;5092050;28;20420;-42
2021/07/01 02:13:24;;;;;;;20.88;13.68;;;14.50;99.90;;;;;;5102501;28;20637;-42
2021/07/01 02:15:50;;;;;;;22.05;13.65;;;14.50;99.90;;;;;;5100177;28;20029;-42
2021/07/01 02:18:15;;;;;;;23.38;13.13;;;14.50;99.90;;;;;;5090507;28;20095;-41
2021/07/01 02:20:41;;;;;;;26.77;14.25;;;14.50;99.90;;;;;;5074833;28;20129;-41
2021/07/01 02:23:06;;;;;;;24.15;13.65;;;14.40;99.90;;;;;;5080141;28;20059;-42
2021/07/01 02:25:33;;;;;;;20.92;12.77;;;14.40;99.90;;;;;;5078507;28;20385;-42
2021/07/01 02:27:59;;;;;;;23.77;13.80;;;14.40;99.90;;;;;;5077669;28;20509;-42
2021/07/01 02:30:25;;;;;;;28.38;15.55;;;14.40;99.90;;;;;;5080594;28;20032;-42
2021/07/01 02:32:51;;;;;;;24.58;13.82;;;14.40;99.90;;;;;;5073603;28;20406;-42
2021/07/01 02:35:17;;;;;;;22.35;12.48;;;14.30;99.90;;;;;;5081603;28;20032;-42
2021/07/01 02:37:43;;;;;;;21.90;12.73;;;14.30;99.90;;;;;;5075569;28;20012;-42
2021/07/01 02:40:12;;;;;;;20.65;12.13;;;14.30;99.90;;;;;;5078407;28;20028;-41
2021/07/01 02:42:39;;;;;;;22.58;12.60;;;14.30;99.90;;;;;;5084748;28;20055;-43
2021/07/01 02:45:06;;;;;;;25.52;14.25;;;14.30;99.90;;;;;;5079347;28;20028;-42
2021/07/01 02:47:31;;;;;;;22.58;12.80;;;14.30;99.90;;;;;;5078989;28;20023;-42
2021/07/01 02:49:57;;;;;;;22.05;11.93;;;14.20;99.90;;;;;;5073083;28;20424;-42
2021/07/01 02:52:22;;;;;;;20.05;11.85;;;14.20;99.90;;;;;;5081358;28;20028;-42
2021/07/01 02:54:48;;;;;;;20.77;11.55;;;14.20;99.90;;;;;;5072072;28;20104;-41
2021/07/01 02:57:14;;;;;;;21.92;11.25;;;14.20;99.90;;;;;;5072553;28;20016;-42
2021/07/01 02:59:39;;;;;;;22.02;11.73;;;14.20;99.90;;;;;;5069720;28;20020;-41
2021/07/01 03:02:05;;;;;;;23.27;12.75;;;14.20;99.90;;;;;;5072526;28;20075;-42
2021/07/01 03:04:30;;;;;;;19.98;11.57;;;14.20;99.90;;;;;;5071976;28;20023;-41
2021/07/01 03:06:55;;;;;;;25.58;13.63;;;14.20;99.90;;;;;;5068588;28;20505;-42
2021/07/01 03:09:21;;;;;;;28.52;15.38;;;14.10;99.90;;;;;;5077722;28;20090;-42
2021/07/01 03:11:46;;;;;;;24.10;14.43;;;14.10;99.90;;;;;;5084838;28;20061;-42
2021/07/01 03:14:12;;;;;;;24.77;15.68;;;14.10;99.90;;;;;;5096355;28;20036;-42
2021/07/01 03:16:38;;;;;;;25.80;14.60;;;14.00;99.90;;;;;;5098619;28;20016;-43
2021/07/01 03:19:03;;;;;;;32.60;15.57;;;14.00;99.90;;;;;;5106583;28;20211;-42
2021/07/01 03:21:29;;;;;;;27.98;15.98;;;13.90;99.90;;;;;;5104114;28;20365;-42
2021/07/01 03:23:54;;;;;;;28.65;16.25;;;13.90;99.90;;;;;;5104080;28;20481;-43
2021/07/01 03:26:20;;;;;;;24.58;14.55;;;13.90;99.90;;;;;;5103527;28;20380;-43
2021/07/01 03:28:46;;;;;;;30.15;17.50;;;13.90;99.90;;;;;;5103959;28;20030;-43
2021/07/01 03:31:12;;;;;;;30.42;15.63;;;13.90;99.90;;;;;;5100661;28;20068;-42
2021/07/01 03:33:38;;;;;;;35.40;17.98;;;13.90;99.90;;;;;;5098972;28;20213;-42
2021/07/01 03:36:05;;;;;;;31.08;17.15;;;13.90;99.90;;;;;;5085926;28;20059;-42
2021/07/01 03:38:31;;;;;;;26.75;15.98;;;13.80;99.90;;;;;;5096412;28;20544;-42
2021/07/01 03:40:57;;;;;;;26.65;15.23;;;13.80;99.90;;;;;;5087096;28;20020;-43
2021/07/01 03:43:23;;;;;;;28.35;16.73;;;13.80;99.90;;;;;;5084060;28;20134;-42
2021/07/01 03:45:48;;;;;;;26.73;16.30;;;13.80;99.90;;;;;;5085461;28;20012;-42
2021/07/01 03:48:14;;;;;;;26.63;14.80;;;13.70;99.90;;;;;;5081504;28;20564;-43
2021/07/01 03:50:41;;;;;;;27.98;16.98;;;13.70;99.90;;;;;;5090652;28;20016;-43
2021/07/01 03:53:07;;;;;;;30.30;16.75;;;13.60;99.90;;;;;;5093826;28;20586;-42
2021/07/01 03:55:33;;;;;;;28.02;16.35;;;13.60;99.90;;;;;;5095002;28;20066;-43
2021/07/01 03:57:59;;;;;;;29.08;16.90;;;13.60;99.90;;;;;;5088225;28;20100;-42
2021/07/01 04:00:25;;;;;;;32.67;16.77;;;13.60;99.90;;;;;;5081873;28;20350;-42
2021/07/01 04:02:50;;;;;;;31.70;19.17;;;13.60;99.90;;;;;;5094795;27;20473;-42
2021/07/01 04:05:16;;;;;;;34.13;18.88;;;13.50;99.90;;;;;;5081662;28;20032;-42
2021/07/01 04:07:41;;;;;;;35.17;17.40;;;13.50;99.90;;;;;;5093525;28;20103;-43
2021/07/01 04:10:11;;;;;;;34.13;18.63;;;13.50;99.90;;;;;;5084136;28;20289;-43
2021/07/01 04:12:36;;;;;;;32.15;18.05;;;13.50;99.90;;;;;;5090779;28;20482;-43
2021/07/01 04:15:03;;;;;;;30.77;17.58;;;13.50;99.90;;;;;;5089038;28;20074;-43
2021/07/01 04:17:29;;;;;;;34.42;18.60;;;13.50;99.90;;;;;;5089553;28;20527;-42
2021/07/01 04:19:55;;;;;;;36.35;17.83;;;13.50;99.90;;;;;;5088307;28;20111;-43
2021/07/01 04:22:20;;;;;;;32.58;17.17;;;13.50;99.90;;;;;;5092744;28;20115;-43
2021/07/01 04:24:45;;;;;;;32.97;16.55;;;13.50;99.90;;;;;;5080329;28;20138;-43
2021/07/01 04:27:11;;;;;;;34.63;16.20;;;13.50;99.90;;;;;;5078895;28;20082;-43
2021/07/01 04:29:37;;;;;;;31.77;15.82;;;13.50;99.90;;;;;;5081537;28;20397;-43
2021/07/01 04:32:03;;;;;;;26.27;14.50;;;13.50;99.90;;;;;;5076113;28;20024;-43
2021/07/01 04:34:29;;;;;;;21.48;13.00;;;13.50;99.90;;;;;;5099354;28;20085;-44
2021/07/01 04:36:54;;;;;;;26.85;15.00;;;13.50;99.90;;;;;;5079407;28;20474;-43
2021/07/01 04:39:20;;;;;;;25.58;13.88;;;13.50;99.90;;;;;;5072291;28;20028;-42
2021/07/01 04:41:46;;;;;;;22.55;12.80;;;13.50;99.90;;;;;;5072972;28;20025;-43
2021/07/01 04:44:12;;;;;;;24.10;13.52;;;13.50;99.90;;;;;;5072616;28;20024;-43
2021/07/01 04:46:38;;;;;;;22.55;13.27;;;13.50;99.90;;;;;;5071595;28;20097;-43
2021/07/01 04:49:03;;;;;;;25.50;14.13;;;13.50;99.90;;;;;;5076179;28;20027;-43
2021/07/01 04:51:29;;;;;;;24.10;14.25;;;13.50;99.90;;;;;;5093366;28;20038;-43
2021/07/01 04:53:55;;;;;;;23.85;13.70;;;13.40;99.90;;;;;;5078519;28;20131;-43
2021/07/01 04:56:20;;;;;;;25.90;14.73;;;13.40;99.90;;;;;;5106621;28;20141;-43
2021/07/01 04:58:46;;;;;;;22.77;14.75;;;13.40;99.90;;;;;;5087115;28;20111;-43
2021/07/01 05:01:11;;;;;;;25.25;13.85;;;13.40;99.90;;;;;;5092154;28;20027;-43
2021/07/01 05:03:37;;;;;;;22.92;14.15;;;13.50;99.90;;;;;;5090988;28;20028;-43
2021/07/01 05:06:03;;;;;;;21.38;13.35;;;13.50;99.90;;;;;;5084704;28;20033;-42
2021/07/01 05:08:28;;;;;;;24.92;13.50;;;13.50;99.90;;;;;;5076001;28;20032;-43
2021/07/01 05:10:54;;;;;;;22.88;12.60;;;13.50;99.90;;;;;;5075944;28;20036;-43
2021/07/01 05:13:20;;;;;;;17.42;12.23;;;13.50;99.90;;;;;;5101397;28;20102;-43
2021/07/01 05:15:45;;;;;;;21.27;13.25;;;13.50;99.90;;;;;;5096660;28;20480;-43
2021/07/01 05:18:11;;;;;;;19.27;11.68;;;13.50;99.90;;;;;;5083424;28;20097;-42
2021/07/01 05:20:36;;;;;;;22.38;12.85;;;13.50;99.90;;;;;;5074857;28;20044;-42
2021/07/01 05:23:02;;;;;;;20.58;13.63;;;13.50;99.90;;;;;;5076979;28;20532;-42
2021/07/01 05:25:27;;;;;;;23.20;13.88;;;13.50;99.90;;;;;;5088315;28;20032;-43
2021/07/01 05:27:53;;;;;;;20.40;13.50;;;13.50;99.90;;;;;;5076838;28;20103;-43
2021/07/01 05:30:18;;;;;;;24.98;13.32;;;13.50;99.90;;;;;;5096999;28;20102;-42
2021/07/01 05:32:44;;;;;;;21.92;12.63;;;13.50;99.90;;;;;;5091959;28;20587;-43
2021/07/01 05:35:10;;;;;;;22.92;14.70;;;13.50;99.90;;;;;;5088236;28;20107;-42
2021/07/01 05:37:35;;;;;;;24.63;12.77;;;13.50;99.90;;;;;;5083776;28;20029;-43
2021/07/01 05:40:01;;;;;;;20.27;12.05;;;13.60;99.90;;;;;;5071118;28;20107;-43
2021/07/01 05:42:27;;;;;;;22.42;12.30;;;13.60;99.90;;;;;;5085925;28;20418;-42
2021/07/01 05:44:52;;;;;;;18.15;12.18;;;13.40;99.90;;;;;;5077628;28;20078;-43
2021/07/01 05:47:18;;;;;;;19.27;13.52;;;13.40;99.90;;;;;;5079883;28;20072;-44
2021/07/01 05:49:44;;;;;;;24.17;13.13;;;13.50;99.90;;;;;;5077525;28;20024;-43
2021/07/01 05:52:10;;;;;;;22.80;12.98;;;13.50;99.90;;;;;;5080471;28;20019;-43
2021/07/01 05:54:38;;;;;;;19.67;12.00;;;13.40;99.90;;;;;;5078731;28;20524;-43
2021/07/01 05:57:04;;;;;;;18.50;12.93;;;13.50;99.90;;;;;;5079030;28;20384;-42
2021/07/01 05:59:30;;;;;;;19.30;12.38;;;13.50;99.90;;;;;;5081560;28;20019;-42
2021/07/01 06:01:56;;;;;;;17.77;11.25;;;13.60;99.90;;;;;;5089767;28;20081;-43
2021/07/01 06:04:22;;;;;;;17.35;11.20;;;13.50;99.90;;;;;;5089297;28;20511;-43
2021/07/01 06:06:54;;;;;;;22.35;12.05;;;13.50;99.90;;;;;;5088384;28;20024;-42
2021/07/01 06:09:26;;;;;;;15.05;9.95;;;13.50;99.90;;;;;;5083705;28;20035;-43
2021/07/01 06:11:56;;;;;;;17.63;10.32;;;13.50;99.90;;;;;;5083705;28;20055;-43
2021/07/01 06:14:24;;;;;;;14.70;9.30;;;13.50;99.90;;;;;;5087977;28;20044;-42
2021/07/01 06:16:54;;;;;;;13.60;10.02;;;13.60;99.90;;;;;;5089668;28;20022;-43
2021/07/01 06:19:20;;;;;;;15.30;10.07;;;13.60;99.90;;;;;;5080298;28;20440;-45
2021/07/01 06:21:47;;;;;;;15.70;10.90;;;13.70;99.90;;;;;;5079710;28;20040;-45
2021/07/01 06:24:14;;;;;;;13.00;9.68;;;13.80;99.90;;;;;;5085013;28;20481;-45
2021/07/01 06:26:40;;;;;;;12.73;9.15;;;13.80;99.90;;;;;;5092866;28;20069;-46
2021/07/01 06:29:06;;;;;;;13.55;8.98;;;13.90;99.90;;;;;;5093806;28;20457;-45
2021/07/01 06:31:31;;;;;;;16.40;8.73;;;13.90;99.90;;;;;;5083653;28;20028;-45
2021/07/01 06:33:57;;;;;;;14.10;8.55;;;13.90;99.90;;;;;;5078099;28;20033;-45
2021/07/01 06:36:28;;;;;;;10.80;8.05;;;14.00;99.90;;;;;;5078885;28;20015;-43
2021/07/01 06:38:57;;;;;;;10.43;7.70;;;14.10;99.90;;;;;;5083726;28;20493;-45
2021/07/01 06:41:25;;;;;;;12.68;8.13;;;14.10;99.90;;;;;;5075088;28;20027;-44
2021/07/01 06:43:53;;;;;;;8.27;7.47;;;14.10;99.90;;;;;;5093609;28;20110;-45
2021/07/01 06:46:19;;;;;;;11.23;7.95;;;14.20;99.90;;;;;;5090128;28;20059;-45
2021/07/01 06:48:47;;;;;;;10.00;7.22;;;14.20;99.90;;;;;;5085377;28;20024;-44
2021/07/01 06:51:15;;;;;;;7.97;6.78;;;14.20;99.90;;;;;;5091476;28;20033;-44
2021/07/01 06:53:42;;;;;;;10.02;6.90;;;14.20;99.90;;;;;;5079534;28;20029;-44
2021/07/01 06:56:08;;;;;;;7.75;6.18;;;14.20;99.90;;;;;;5075812;28;20039;-46
2021/07/01 06:58:39;;;;;;;8.30;6.45;;;14.20;99.90;;;;;;5096103;28;20029;-44
2021/07/01 07:01:05;;;;;;;8.93;5.88;;;14.20;99.90;;;;;;5086324;28;20031;-45
2021/07/01 07:03:31;;;;;;;11.25;6.07;;;14.20;99.90;;;;;;5085692;28;20269;-45
2021/07/01 07:05:59;;;;;;;9.13;6.47;;;14.10;99.90;;;;;;5086347;28;20021;-45
2021/07/01 07:08:25;;;;;;;9.23;6.75;;;14.20;99.90;;;;;;5100049;28;20049;-45
2021/07/01 07:10:51;;;;;;;7.07;6.15;;;14.20;99.90;;;;;;5086926;28;20029;-45
2021/07/01 07:13:17;;;;;;;8.82;6.00;;;14.10;99.90;;;;;;5097499;28;20024;-46
2021/07/01 07:15:44;;;;;;;7.90;6.20;;;14.10;99.90;;;;;;5094716;28;20023;-45
2021/07/01 07:18:22;;;;;;;8.80;6.30;;;14.10;99.90;;;;;;5100940;28;20040;-44
2021/07/01 07:21:17;;;;;;;6.75;5.38;;;14.10;99.90;;;;;;5096447;28;20024;-44
2021/07/01 07:23:48;;;;;;;5.57;5.07;;;14.20;99.90;;;;;;5094430;28;20043;-45
2021/07/01 07:26:15;;;;;;;8.70;5.70;;;14.20;99.90;;;;;;5099717;28;20020;-44
2021/07/01 07:28:50;;;;;;;7.60;5.28;;;14.20;99.90;;;;;;5098829;28;20493;-45
2021/07/01 07:31:23;;;;;;;6.72;5.82;;;14.00;99.90;;;;;;5095594;28;20040;-47
2021/07/01 07:33:52;;;;;;;8.57;6.55;;;14.00;99.90;;;;;;5101966;28;20077;-45
2021/07/01 07:36:23;;;;;;;12.15;7.13;;;14.10;99.90;;;;;;5100805;28;20019;-45
2021/07/01 07:38:49;;;;;;;;;;;14.10;99.90;;;;;;5098451;28;20431;-45
2021/07/01 07:41:15;;;;;;;8.95;7.13;;;14.20;99.90;;;;;;5101351;28;19947;-45
2021/07/01 07:43:41;;;;;;;10.30;7.13;;;14.30;99.90;;;;;;5090638;28;20049;-45
2021/07/01 07:46:07;;;;;;;10.38;6.78;;;14.20;99.90;;;;;;5106270;28;20042;-45
2021/07/01 07:48:32;;;;;;;9.25;7.25;;;14.20;99.90;;;;;;5098341;28;20532;-44
2021/07/01 07:50:59;;;;;;;9.55;7.72;;;14.30;99.90;;;;;;5102612;28;20031;-45
2021/07/01 07:53:29;;;;;;;8.93;6.43;;;14.30;99.90;;;;;;5096595;28;20083;-44
2021/07/01 07:56:03;;;;;;;7.25;6.40;;;14.30;99.90;;;;;;5093620;28;20259;-45
2021/07/01 07:58:31;;;;;;;9.85;6.93;;;14.30;99.90;;;;;;5094466;28;20460;-47
2021/07/01 08:01:00;;;;;;;10.45;6.40;;;14.40;99.90;;;;;;5104677;28;20020;-44
2021/07/01 08:03:31;;;;;;;7.55;6.25;;;14.40;99.90;;;;;;5100420;28;20012;-44
2021/07/01 08:06:00;;;;;;;6.05;5.40;;;14.50;99.90;;;;;;5100622;28;20351;-44
2021/07/01 08:08:29;;;;;;;5.78;5.13;;;14.60;99.90;;;;;;5105748;28;20020;-44
2021/07/01 08:10:56;;;;;;;9.35;5.85;;;14.70;99.90;;;;;;5096274;28;20028;-44
2021/07/01 08:13:22;;;;;;;8.82;5.93;;;14.70;99.90;;;;;;5088033;28;20123;-47
2021/07/01 08:15:48;;;;;;;5.55;4.80;;;14.70;99.90;;;;;;5102943;28;20477;-42
2021/07/01 08:18:29;;;;;;;8.60;5.10;;;14.70;99.90;;;;;;5100354;28;20078;-42
2021/07/01 08:20:55;;;;;;;5.22;4.72;;;14.70;99.90;;;;;;5094210;28;20564;-43
2021/07/01 08:23:20;;;;;;;5.82;4.60;;;14.70;99.90;;;;;;5095552;28;20110;-43
2021/07/01 08:25:47;;;;;;;4.50;4.10;;;14.70;99.90;;;;;;5074969;28;20413;-42
2021/07/01 08:28:17;;;;;;;4.65;4.20;;;14.70;99.90;;;;;;5093730;28;20047;-42
2021/07/01 08:30:43;;;;;;;4.20;3.80;;;14.90;99.90;;;;;;5094272;28;20020;-42
2021/07/01 08:33:08;;;;;;;5.28;4.10;;;14.90;99.90;;;;;;5090180;28;20035;-42
2021/07/01 08:35:36;;;;;;;4.72;4.05;;;14.90;99.90;;;;;;5088683;28;20396;-43
2021/07/01 08:38:04;;;;;;;4.72;3.97;;;14.80;99.90;;;;;;5091839;28;20023;-43
2021/07/01 08:40:54;;;;;;;4.72;3.75;;;15.00;99.90;;;;;;5071331;28;20112;-42
2021/07/01 08:43:21;;;;;;;4.35;3.22;;;15.00;99.90;;;;;;4989965;28;20030;-42
2021/07/01 08:46:14;;;;;;;6.85;3.72;;;14.90;99.90;;;;;;5006805;28;20136;-42
2021/07/01 08:49:04;;;;;;;4.03;3.60;;;15.10;99.90;;;;;;5051438;28;20486;-42
2021/07/01 08:51:46;;;;;;;9.05;3.78;;;15.20;99.90;;;;;;5088474;28;20493;-42
2021/07/01 08:54:33;;;;;;;5.05;3.47;;;15.10;99.90;;;;;;5088626;28;20443;-43
2021/07/01 08:56:59;;;;;;;4.32;3.92;;;15.20;99.90;;;;;;5086236;28;20503;-42
2021/07/01 08:59:27;;;;;;;3.60;3.30;;;15.30;99.90;;;;;;5085135;28;20016;-42
2021/07/01 09:01:58;;;;;;;4.50;3.90;;;15.20;99.90;;;;;;5094611;28;20024;-43
2021/07/01 09:04:29;;;;;;;5.53;3.80;;;15.20;99.90;;;;;;5081797;28;20043;-42
2021/07/01 09:07:01;;;;;;;3.92;3.35;;;15.20;99.90;;;;;;5081775;28;20029;-43
2021/07/01 09:09:35;;;;;;;4.97;4.35;;;15.10;99.90;;;;;;5085489;28;20070;-42
2021/07/01 09:12:04;;;;;;;3.95;3.55;;;15.10;99.90;;;;;;5092554;28;20085;-42
2021/07/01 09:14:31;;;;;;;5.63;3.90;;;15.20;99.90;;;;;;5091896;28;20024;-42
2021/07/01 09:17:00;;;;;;;5.22;4.30;;;15.00;99.90;;;;;;5078305;28;20020;-42
2021/07/01 09:19:27;;;;;;;7.57;4.43;;;15.00;99.90;;;;;;5072319;28;20030;-42
2021/07/01 09:21:53;;;;;;;5.43;4.03;;;15.00;99.90;;;;;;5091724;28;20058;-42
2021/07/01 09:24:18;;;;;;;5.13;4.45;;;14.90;99.90;;;;;;5086110;28;20032;-42
2021/07/01 09:26:49;;;;;;;6.38;4.40;;;14.90;99.90;;;;;;5094915;28;20023;-42
2021/07/01 09:29:16;;;;;;;6.43;4.55;;;14.90;99.90;;;;;;5089037;28;20031;-42
2021/07/01 09:31:42;;;;;;;5.72;4.50;;;15.00;99.90;;;;;;5086999;28;20460;-43
2021/07/01 09:34:09;;;;;;;6.55;4.15;;;15.00;99.90;;;;;;5091157;28;20107;-42
2021/07/01 09:36:35;;;;;;;4.55;4.15;;;15.00;99.90;;;;;;5076873;28;20067;-42
2021/07/01 09:39:03;;;;;;;4.80;4.03;;;14.90;99.90;;;;;;5092516;28;20454;-42
2021/07/01 09:41:29;;;;;;;5.88;4.43;;;15.00;99.90;;;;;;5083520;28;20041;-42
2021/07/01 09:43:55;;;;;;;4.47;3.95;;;15.00;99.90;;;;;;5090288;28;20146;-42
2021/07/01 09:46:23;;;;;;;5.35;4.65;;;15.10;99.90;;;;;;5085879;28;20023;-42
2021/07/01 09:48:51;;;;;;;4.60;4.03;;;15.20;99.90;;;;;;5086729;28;20013;-42
2021/07/01 09:51:19;;;;;;;5.63;4.55;;;15.10;99.90;;;;;;5088792;28;20024;-42
2021/07/01 09:53:50;;;;;;;4.95;4.43;;;15.20;99.90;;;;;;5087287;28;20031;-42
2021/07/01 09:56:23;;;;;;;7.88;3.90;;;15.30;99.90;;;;;;5092363;28;20027;-42
2021/07/01 09:58:50;;;;;;;4.40;3.97;;;15.30;99.90;;;;;;5089611;28;20020;-42
2021/07/01 10:01:41;;;;;;;4.75;3.95;;;15.40;99.90;;;;;;5095063;28;20468;-42
2021/07/01 10:04:08;;;;;;;4.30;3.65;;;15.60;99.90;;;;;;5078104;28;20024;-42
2021/07/01 10:06:34;;;;;;;6.95;3.55;;;15.60;99.90;;;;;;5092542;28;20110;-42
2021/07/01 10:09:00;;;;;;;4.57;3.88;;;15.60;99.90;;;;;;5082275;28;20115;-42
2021/07/01 10:11:30;;;;;;;4.95;4.45;;;15.60;99.90;;;;;;5081050;28;20576;-42
2021/07/01 10:13:57;;;;;;;5.25;4.22;;;15.70;99.90;;;;;;5093515;28;20027;-41
2021/07/01 10:16:29;;;;;;;10.48;4.80;;;15.70;99.90;;;;;;5087489;28;20031;-42
2021/07/01 10:18:56;;;;;;;5.60;4.10;;;15.80;99.90;;;;;;5069923;28;20021;-42
2021/07/01 10:21:22;;;;;;;4.47;4.00;;;15.80;99.90;;;;;;5071183;28;20019;-42
2021/07/01 10:23:49;;;;;;;5.55;4.07;;;15.70;99.90;;;;;;5086078;28;20058;-42
2021/07/01 10:26:17;;;;;;;5.85;3.78;;;15.80;99.90;;;;;;5090749;28;20023;-42
2021/07/01 10:28:57;;;;;;;4.60;4.20;;;15.80;99.90;;;;;;5096307;28;20019;-42
2021/07/01 10:31:23;;;;;;;4.53;4.13;;;15.80;99.90;;;;;;5084856;28;20031;-42
2021/07/01 10:33:48;;;;;;;5.47;4.40;;;15.80;99.90;;;;;;5084359;28;20033;-42
2021/07/01 10:36:16;;;;;;;4.05;3.70;;;15.80;99.90;;;;;;5079561;28;20045;-42
2021/07/01 10:38:43;;;;;;;4.38;3.67;;;15.90;99.90;;;;;;5090743;28;20011;-42
2021/07/01 10:41:09;;;;;;;4.72;3.60;;;15.90;99.90;;;;;;5083062;28;20021;-43
2021/07/01 10:43:46;;;;;;;4.20;3.80;;;15.90;99.90;;;;;;5094625;28;20374;-42
2021/07/01 10:46:12;;;;;;;7.10;3.95;;;15.90;99.90;;;;;;5086229;28;20059;-42
2021/07/01 10:48:39;;;;;;;5.28;4.05;;;15.90;99.90;;;;;;5086604;28;20021;-42
2021/07/01 10:51:12;;;;;;;5.43;4.25;;;15.80;99.90;;;;;;5083343;28;20041;-42
2021/07/01 10:53:40;;;;;;;4.78;4.28;;;15.80;99.90;;;;;;5074058;28;20386;-43
2021/07/01 10:56:09;;;;;;;4.43;4.00;;;15.90;99.90;;;;;;5092706;28;20016;-42
2021/07/01 10:58:36;;;;;;;5.65;4.13;;;15.80;99.90;;;;;;5080940;28;20386;-42
2021/07/01 11:01:03;;;;;;;6.75;3.90;;;15.80;99.90;;;;;;5093255;28;20103;-42
2021/07/01 11:03:31;;;;;;;4.63;3.97;;;15.80;99.90;;;;;;5087394;28;20051;-41
2021/07/01 11:05:58;;;;;;;4.20;3.75;;;15.80;99.90;;;;;;5084107;28;20156;-42
2021/07/01 11:08:34;;;;;;;3.92;3.63;;;15.70;99.90;;;;;;5090699;28;20016;-42
2021/07/01 11:11:04;;;;;;;5.65;3.92;;;15.70;99.90;;;;;;5084639;28;20029;-42
2021/07/01 11:13:31;;;;;;;5.57;3.85;;;15.70;99.90;;;;;;5088618;28;20020;-42
2021/07/01 11:16:09;;;;;;;6.28;3.22;;;15.70;99.90;;;;;;5077989;28;20012;-41
2021/07/01 11:18:49;;;;;;;4.10;3.70;;;15.80;99.90;;;;;;5093265;28;20035;-42
2021/07/01 11:21:18;;;;;;;4.15;3.60;;;15.80;99.90;;;;;;5084568;28;20031;-41
2021/07/01 11:24:08;;;;;;;4.65;3.20;;;15.80;99.90;;;;;;5091702;28;20011;-42
2021/07/01 11:26:34;;;;;;;3.85;3.42;;;15.80;99.90;;;;;;5089943;28;20430;-42
2021/07/01 11:29:06;;;;;;;4.45;3.50;;;15.90;99.90;;;;;;5093015;28;20020;-42
2021/07/01 11:31:46;;;;;;;3.85;2.85;;;16.00;99.90;;;;;;5082877;28;20119;-43
2021/07/01 11:34:17;;;;;;;5.10;3.90;;;16.00;99.90;;;;;;5094281;28;20042;-42
2021/07/01 11:36:52;;;;;;;4.28;3.15;;;16.10;99.90;;;;;;5086672;28;20079;-42
2021/07/01 11:39:24;;;;;;;3.35;2.95;;;16.10;99.90;;;;;;5084373;28;20032;-42
2021/07/01 11:41:51;;;;;;;3.40;2.80;;;16.10;99.90;;;;;;5081893;28;20031;-42
2021/07/01 11:44:19;;;;;;;6.43;3.10;;;16.10;99.90;;;;;;5088034;28;20607;-42
2021/07/01 11:46:45;;;;;;;3.38;3.08;;;16.10;99.90;;;;;;5089943;28;20024;-42
2021/07/01 11:49:11;;;;;;;4.15;3.10;;;16.10;99.90;;;;;;5089753;28;20029;-43
2021/07/01 11:51:38;;;;;;;3.25;2.92;;;16.20;99.90;;;;;;5076378;28;20037;-42
2021/07/01 11:54:05;;;;;;;3.70;3.05;;;16.20;99.90;;;;;;5078807;28;20064;-43
2021/07/01 11:56:53;;;;;;;4.15;2.58;;;16.30;99.90;;;;;;5091950;28;20012;-42
2021/07/01 11:59:30;;;;;;;4.45;2.58;;;16.20;99.90;;;;;;5091506;28;20074;-42
2021/07/01 12:01:58;;;;;;;2.50;2.30;;;16.10;99.90;;;;;;5087768;28;20044;-42
2021/07/01 12:04:36;;;;;;;4.55;2.80;;;16.30;99.90;;;;;;5082592;28;20122;-42
2021/07/01 12:07:18;;;;;;;3.47;2.50;;;16.30;99.90;;;;;;5075962;28;20043;-42
2021/07/01 12:09:45;;;;;;;5.72;2.85;;;16.30;99.90;;;;;;5086790;28;20034;-43
2021/07/01 12:12:14;;;;;;;4.88;2.80;;;16.30;99.90;;;;;;5090759;28;20034;-43
2021/07/01 12:14:48;;;;;;;5.20;2.85;;;16.40;99.90;;;;;;5097494;28;20035;-43
2021/07/01 12:17:51;;;;;;;3.42;2.67;;;16.50;99.90;;;;;;5106771;28;20035;-42
2021/07/01 12:20:35;;;;;;;5.15;2.78;;;16.60;99.90;;;;;;5075184;28;20114;-42
2021/07/01 12:23:12;;;;;;;5.25;2.80;;;16.60;99.90;;;;;;5071897;28;20394;-42
2021/07/01 12:25:38;;;;;;;9.77;3.70;;;16.60;99.90;;;;;;5073068;28;20258;-42
2021/07/01 12:28:10;;;;;;;4.63;3.30;;;16.70;99.90;;;;;;5096642;28;20443;-42
2021/07/01 12:30:56;;;;;;;4.90;2.85;;;16.70;99.90;;;;;;5080376;28;20090;-42
2021/07/01 12:33:56;;;;;;;3.10;2.80;;;16.70;99.90;;;;;;5071662;28;20082;-42
2021/07/01 12:36:41;;;;;;;4.82;2.78;;;16.70;99.90;;;;;;5073182;28;20015;-42
2021/07/01 12:39:13;;;;;;;3.30;2.40;;;16.80;99.90;;;;;;5077819;28;20035;-43
2021/07/01 12:41:40;;;;;;;4.35;2.90;;;16.70;99.90;;;;;;5077796;28;20020;-43